Beverly, Kansas
Current Conditions -  °F | °C
As of 3:27 PM on Friday 19 Dec 2014 (Local Time) from KSLN Reporting Station
Haze Haze  
Wind Chill: 29°   Ceiling: 1000
Heat Index: 35°   Visibility: 5mi
Dew Point: 31°   Wind: 8mph
Humidity: 85%   Direction: 160°SSE
Pressure: 30.16"   Gusts: NA
Location:  39.01°N, 97.98°W
Report Text: KSLN 192127Z 16007KT 5SM BR OVC010 02/M01 A3016 RMK AO2 T00171006
Loading
Personal Weather Stations






























Interactive Weather Map New forecast layout! Learn more

10-Day Weather Forecast

Advertisements
Track Severe Weather on mobile